createdAt,value
2023-01-08T00:02:21.632Z,5.82
2023-01-08T00:04:50.472Z,5.88
2023-01-08T00:07:17.956Z,5.93
2023-01-08T00:09:45.440Z,5.91
2023-01-08T00:12:13.010Z,5.73
2023-01-08T00:14:40.486Z,5.77
2023-01-08T00:17:08.492Z,5.77
2023-01-08T00:19:35.994Z,5.72
2023-01-08T00:22:04.784Z,5.67
2023-01-08T00:24:32.303Z,5.83
2023-01-08T00:26:59.785Z,5.84
2023-01-08T00:29:27.256Z,5.75
2023-01-08T00:31:54.765Z,5.71
2023-01-08T00:34:22.236Z,5.61
2023-01-08T00:36:49.717Z,5.39
2023-01-08T00:39:18.524Z,5.14
2023-01-08T00:41:46.032Z,5.15
2023-01-08T00:44:13.536Z,5.10
2023-01-08T00:46:41.015Z,4.73
2023-01-08T00:49:08.481Z,4.56
2023-01-08T00:51:35.964Z,4.76
2023-01-08T00:54:03.459Z,4.80
2023-01-08T00:56:32.353Z,5.22
2023-01-08T00:58:59.826Z,5.34
2023-01-08T01:01:27.457Z,5.48
2023-01-08T01:03:55.100Z,5.71
2023-01-08T01:06:22.601Z,5.82
2023-01-08T01:08:50.096Z,5.72
2023-01-08T01:11:21.200Z,5.79
2023-01-08T01:13:50.393Z,5.49
2023-01-08T01:16:18.408Z,5.50
2023-01-08T01:18:46.070Z,5.42
2023-01-08T01:21:17.525Z,5.15
2023-01-08T01:23:44.998Z,5.26
2023-01-08T01:26:17.912Z,5.60
2023-01-08T01:28:48.266Z,5.54
2023-01-08T01:31:18.137Z,5.48
2023-01-08T01:33:45.704Z,5.39
2023-01-08T01:36:14.745Z,5.64
2023-01-08T01:38:44.378Z,5.35
2023-01-08T01:41:20.246Z,5.37
2023-01-08T01:43:47.741Z,5.62
2023-01-08T01:46:29.104Z,5.27
2023-01-08T01:48:59.245Z,5.56
2023-01-08T01:51:32.107Z,5.60
2023-01-08T01:54:00.326Z,5.75
2023-01-08T01:56:28.712Z,5.84
2023-01-08T01:58:56.379Z,5.97
2023-01-08T02:01:26.191Z,5.87
2023-01-08T02:03:53.755Z,6.03
2023-01-08T02:06:32.612Z,5.93
2023-01-08T02:09:05.785Z,5.80
2023-01-08T02:11:43.221Z,5.90
2023-01-08T02:14:17.561Z,5.96
2023-01-08T02:16:55.543Z,5.77
2023-01-08T02:19:37.312Z,5.31
2023-01-08T02:22:15.530Z,5.12
2023-01-08T02:24:52.597Z,5.33
2023-01-08T02:27:25.071Z,5.21
2023-01-08T02:29:56.556Z,5.55
2023-01-08T02:32:27.773Z,5.64
2023-01-08T02:34:55.620Z,5.85
2023-01-08T02:37:23.227Z,5.76
2023-01-08T02:40:11.634Z,5.87
2023-01-08T02:42:46.985Z,5.71
2023-01-08T02:45:32.226Z,5.54
2023-01-08T02:48:06.894Z,5.58
2023-01-08T02:50:38.875Z,5.70
2023-01-08T02:53:13.345Z,5.73
2023-01-08T02:55:45.642Z,5.71
2023-01-08T02:58:15.271Z,5.77
2023-01-08T03:00:45.172Z,6.01
2023-01-08T03:03:17.374Z,6.07
2023-01-08T03:05:49.416Z,6.16
2023-01-08T03:08:19.679Z,5.90
2023-01-08T03:10:52.145Z,5.96
2023-01-08T03:13:27.361Z,5.65
2023-01-08T03:15:59.541Z,5.89
2023-01-08T03:18:34.110Z,6.12
2023-01-08T03:21:03.190Z,5.83
2023-01-08T03:23:35.515Z,6.02
2023-01-08T03:26:05.994Z,5.60
2023-01-08T03:28:40.009Z,5.46
2023-01-08T03:31:09.171Z,5.67
2023-01-08T03:33:38.030Z,5.52
2023-01-08T03:36:08.357Z,5.43
2023-01-08T03:38:41.408Z,5.18
2023-01-08T03:41:13.965Z,5.30
2023-01-08T03:43:42.798Z,5.01
2023-01-08T03:46:14.924Z,5.00
2023-01-08T03:48:43.175Z,4.99
2023-01-08T03:51:10.981Z,4.75
2023-01-08T03:53:38.476Z,4.68
2023-01-08T03:56:06.534Z,4.60
2023-01-08T03:58:34.026Z,4.93
2023-01-08T04:01:03.013Z,5.01
2023-01-08T04:03:30.487Z,5.07
2023-01-08T04:06:00.381Z,5.44
2023-01-08T04:08:27.863Z,5.50
2023-01-08T04:10:55.319Z,5.44
2023-01-08T04:13:22.781Z,5.61
2023-01-08T04:15:50.321Z,5.70
2023-01-08T04:18:19.628Z,5.82
2023-01-08T04:20:47.334Z,5.90
2023-01-08T04:23:14.881Z,5.73
2023-01-08T04:25:42.348Z,5.54
2023-01-08T04:28:10.490Z,5.42
2023-01-08T04:30:38.178Z,5.53
2023-01-08T04:33:05.640Z,5.46
2023-01-08T04:35:34.443Z,5.08
2023-01-08T04:38:01.963Z,4.87
2023-01-08T04:40:29.450Z,4.96
2023-01-08T04:42:56.912Z,5.08
2023-01-08T04:45:24.439Z,5.20
2023-01-08T04:47:56.799Z,5.38
2023-01-08T04:50:24.299Z,5.30
2023-01-08T04:52:53.763Z,5.50
2023-01-08T04:55:21.261Z,5.53
2023-01-08T04:57:49.021Z,5.51
2023-01-08T05:00:17.371Z,5.42
2023-01-08T05:02:45.034Z,5.27
2023-01-08T05:05:12.678Z,5.50
2023-01-08T05:07:40.144Z,5.43
2023-01-08T05:10:10.427Z,5.36
2023-01-08T05:12:37.955Z,4.71
2023-01-08T05:15:06.091Z,4.45
2023-01-08T05:17:33.607Z,4.12
2023-01-08T05:20:01.052Z,4.37
2023-01-08T05:22:28.583Z,4.47
2023-01-08T05:24:56.044Z,4.72
2023-01-08T05:27:24.844Z,4.81
2023-01-08T05:29:52.398Z,4.96
2023-01-08T05:32:20.335Z,5.02
2023-01-08T05:34:47.804Z,5.05
2023-01-08T05:37:15.258Z,4.89
2023-01-08T05:39:42.737Z,4.87
2023-01-08T05:42:10.197Z,4.62
2023-01-08T05:44:38.988Z,4.79
2023-01-08T05:47:06.567Z,4.76
2023-01-08T05:49:34.054Z,4.80
2023-01-08T05:52:01.524Z,4.84
2023-01-08T05:54:28.987Z,4.48
2023-01-08T05:56:56.468Z,4.44
2023-01-08T05:59:23.935Z,4.51
2023-01-08T06:01:52.812Z,4.50
2023-01-08T06:04:20.354Z,4.42
2023-01-08T06:06:47.896Z,4.36
2023-01-08T06:09:15.346Z,4.27
2023-01-08T06:11:42.821Z,4.48
2023-01-08T06:14:10.276Z,4.53
2023-01-08T06:16:37.737Z,4.44
2023-01-08T06:19:06.518Z,4.46
2023-01-08T06:21:34.001Z,4.76
2023-01-08T06:24:01.450Z,4.93
2023-01-08T06:26:28.993Z,4.89
2023-01-08T06:28:56.490Z,5.08
2023-01-08T06:31:23.986Z,5.10
2023-01-08T06:33:51.542Z,5.12
2023-01-08T06:36:20.935Z,5.13
2023-01-08T06:38:48.376Z,5.11
2023-01-08T06:41:15.849Z,5.02
2023-01-08T06:43:43.325Z,5.02
2023-01-08T06:46:11.096Z,5.03
2023-01-08T06:48:38.892Z,5.02
2023-01-08T06:51:07.642Z,4.97
2023-01-08T06:53:36.529Z,4.90
2023-01-08T06:56:04.691Z,4.93
2023-01-08T06:58:32.331Z,4.77
2023-01-08T07:00:59.932Z,4.95
2023-01-08T07:03:27.593Z,4.81
2023-01-08T07:05:55.646Z,4.86
2023-01-08T07:08:23.815Z,4.96
2023-01-08T07:10:52.618Z,5.06
2023-01-08T07:13:20.926Z,5.17
2023-01-08T07:15:48.445Z,5.32
2023-01-08T07:18:15.930Z,5.40
2023-01-08T07:20:43.407Z,5.31
2023-01-08T07:23:12.443Z,5.02
2023-01-08T07:25:39.960Z,4.67
2023-01-08T07:28:12.628Z,4.59
2023-01-08T07:30:40.086Z,4.82
2023-01-08T07:33:07.537Z,4.99
2023-01-08T07:35:35.506Z,4.73
2023-01-08T07:38:02.960Z,4.80
2023-01-08T07:40:30.434Z,4.77
2023-01-08T07:42:59.272Z,4.61
2023-01-08T07:45:28.831Z,4.79
2023-01-08T07:47:57.915Z,4.36
2023-01-08T07:50:25.408Z,4.66
2023-01-08T07:52:52.848Z,4.29
2023-01-08T07:55:20.342Z,4.22
2023-01-08T07:57:47.781Z,4.21
2023-01-08T08:00:15.727Z,4.44
2023-01-08T08:02:44.575Z,4.53
2023-01-08T08:05:12.194Z,4.30
2023-01-08T08:07:39.659Z,4.59
2023-01-08T08:10:07.824Z,4.60
2023-01-08T08:12:35.463Z,4.76
2023-01-08T08:15:02.961Z,4.57
2023-01-08T08:17:30.430Z,4.50
2023-01-08T08:19:59.231Z,4.08
2023-01-08T08:22:27.104Z,4.39
2023-01-08T08:24:54.595Z,4.91
2023-01-08T08:27:23.775Z,4.75
2023-01-08T08:29:51.252Z,5.27
2023-01-08T08:32:18.709Z,5.61
2023-01-08T08:34:46.190Z,5.00
2023-01-08T08:37:15.060Z,5.56
2023-01-08T08:39:42.553Z,5.95
2023-01-08T08:42:10.024Z,5.87
2023-01-08T08:44:37.508Z,6.17
2023-01-08T08:47:08.063Z,6.26
2023-01-08T08:49:36.415Z,6.11
2023-01-08T08:52:03.969Z,6.10
2023-01-08T08:54:32.956Z,6.32
2023-01-08T08:57:00.468Z,6.50
2023-01-08T08:59:27.959Z,6.52
2023-01-08T09:01:55.654Z,6.13
2023-01-08T09:04:23.265Z,5.96
2023-01-08T09:06:50.772Z,5.91
2023-01-08T09:09:18.230Z,5.59
2023-01-08T09:11:47.083Z,5.63
2023-01-08T09:14:14.693Z,5.85
2023-01-08T09:16:42.249Z,5.73
2023-01-08T09:19:10.338Z,5.90
2023-01-08T09:21:38.028Z,6.32
2023-01-08T09:24:06.124Z,6.39
2023-01-08T09:26:33.637Z,5.93
2023-01-08T09:29:02.498Z,5.70
2023-01-08T09:31:30.158Z,5.39
2023-01-08T09:33:57.672Z,5.45
2023-01-08T09:36:25.178Z,5.95
2023-01-08T09:38:52.675Z,6.36
2023-01-08T09:41:23.586Z,6.31
2023-01-08T09:43:54.703Z,6.00
2023-01-08T09:46:26.943Z,5.86
2023-01-08T09:48:57.734Z,6.04
2023-01-08T09:51:30.519Z,5.94
2023-01-08T09:53:58.782Z,6.37
2023-01-08T09:56:26.767Z,6.80
2023-01-08T09:58:59.769Z,6.79
2023-01-08T10:01:30.928Z,6.92
2023-01-08T10:04:05.285Z,7.01
2023-01-08T10:06:32.983Z,6.75
2023-01-08T10:09:00.666Z,6.83
2023-01-08T10:11:34.229Z,7.26
2023-01-08T10:14:01.718Z,7.69
2023-01-08T10:16:35.480Z,8.10
2023-01-08T10:19:04.089Z,8.46
2023-01-08T10:21:33.951Z,8.39
2023-01-08T10:24:01.414Z,8.11
2023-01-08T10:26:31.066Z,8.02
2023-01-08T10:29:14.630Z,8.06
2023-01-08T10:31:52.159Z,8.06
2023-01-08T10:34:31.714Z,7.91
2023-01-08T10:36:59.247Z,7.75
2023-01-08T10:39:29.667Z,7.76
2023-01-08T10:42:04.431Z,8.21
2023-01-08T10:44:33.834Z,8.47
2023-01-08T10:47:03.642Z,8.73
2023-01-08T10:49:34.502Z,8.41
2023-01-08T10:52:02.226Z,8.26
2023-01-08T10:54:35.499Z,8.64
2023-01-08T10:57:03.221Z,8.84
2023-01-08T10:59:31.885Z,8.94
2023-01-08T11:01:59.766Z,8.82
2023-01-08T11:04:33.192Z,9.14
2023-01-08T11:07:02.784Z,9.03
2023-01-08T11:09:33.462Z,9.09
2023-01-08T11:12:01.824Z,8.93
2023-01-08T11:14:34.345Z,9.08
2023-01-08T11:17:02.976Z,8.59
2023-01-08T11:19:33.675Z,8.24
2023-01-08T11:22:03.050Z,7.95
2023-01-08T11:24:33.129Z,7.88
2023-01-08T11:27:06.069Z,7.57
2023-01-08T11:29:40.237Z,7.76
2023-01-08T11:32:24.357Z,7.94
2023-01-08T11:34:58.021Z,7.64
2023-01-08T11:37:28.017Z,7.67
2023-01-08T11:39:56.530Z,7.59
2023-01-08T11:42:39.603Z,7.58
2023-01-08T11:45:18.530Z,7.63
2023-01-08T11:48:14.796Z,8.44
2023-01-08T11:50:55.179Z,8.87
2023-01-08T11:53:30.417Z,8.70
2023-01-08T11:56:10.237Z,9.22
2023-01-08T11:58:56.254Z,9.56
2023-01-08T12:01:49.875Z,9.45
2023-01-08T12:04:43.005Z,9.08
2023-01-08T12:07:20.014Z,8.51
2023-01-08T12:09:54.978Z,8.09
2023-01-08T12:12:36.230Z,7.66
2023-01-08T12:15:16.938Z,7.91
2023-01-08T12:18:03.183Z,8.25
2023-01-08T12:20:37.615Z,8.44
2023-01-08T12:23:17.151Z,8.25
2023-01-08T12:26:09.963Z,8.46
2023-01-08T12:28:54.441Z,8.08
2023-01-08T12:31:37.945Z,8.10
2023-01-08T12:34:12.046Z,8.33
2023-01-08T12:36:45.153Z,8.31
2023-01-08T12:39:22.473Z,8.14
2023-01-08T12:41:53.063Z,8.14
2023-01-08T12:44:25.638Z,7.97
2023-01-08T12:46:56.314Z,7.42
2023-01-08T12:49:31.586Z,7.19
2023-01-08T12:52:08.319Z,6.98
2023-01-08T12:54:49.563Z,6.62
2023-01-08T12:57:27.543Z,6.45
2023-01-08T13:00:00.948Z,6.48
2023-01-08T13:02:43.343Z,6.41
2023-01-08T13:05:29.138Z,6.36
2023-01-08T13:07:59.293Z,6.44
2023-01-08T13:10:35.545Z,6.53
2023-01-08T13:13:04.193Z,6.54
2023-01-08T13:15:33.176Z,6.25
2023-01-08T13:18:08.162Z,6.41
2023-01-08T13:20:36.126Z,6.30
2023-01-08T13:23:05.842Z,6.18
2023-01-08T13:25:36.434Z,5.99
2023-01-08T13:28:26.893Z,5.97
2023-01-08T13:30:55.725Z,6.25
2023-01-08T13:33:28.974Z,6.14
2023-01-08T13:36:17.623Z,5.78
2023-01-08T13:38:45.976Z,5.65
2023-01-08T13:41:27.826Z,5.32
2023-01-08T13:44:00.910Z,5.48
2023-01-08T13:46:29.329Z,5.79
2023-01-08T13:49:02.090Z,5.87
2023-01-08T13:51:35.132Z,5.77
2023-01-08T13:54:16.720Z,5.57
2023-01-08T13:56:49.531Z,5.46
2023-01-08T13:59:31.489Z,5.34
2023-01-08T14:02:01.289Z,5.18
2023-01-08T14:04:28.903Z,5.28
2023-01-08T14:07:12.349Z,5.53
2023-01-08T14:09:39.873Z,5.55
2023-01-08T14:12:15.083Z,5.76
2023-01-08T14:14:46.757Z,5.75
2023-01-08T14:17:17.537Z,5.91
2023-01-08T14:19:45.949Z,6.13
2023-01-08T14:22:19.955Z,5.85
2023-01-08T14:24:54.065Z,5.45
2023-01-08T14:27:24.929Z,5.77
2023-01-08T14:29:52.656Z,5.48
2023-01-08T14:32:22.214Z,5.42
2023-01-08T14:34:52.142Z,5.30
2023-01-08T14:37:20.572Z,5.08
2023-01-08T14:39:54.276Z,5.15
2023-01-08T14:42:47.088Z,5.12
2023-01-08T14:45:20.183Z,4.72
2023-01-08T14:47:50.091Z,4.64
2023-01-08T14:50:24.685Z,4.76
2023-01-08T14:52:53.459Z,4.89
2023-01-08T14:55:21.903Z,5.00
2023-01-08T14:57:54.448Z,5.25
2023-01-08T15:00:26.016Z,5.33
2023-01-08T15:02:53.944Z,5.46
2023-01-08T15:05:26.870Z,5.21
2023-01-08T15:08:01.993Z,5.19
2023-01-08T15:10:41.321Z,5.15
2023-01-08T15:13:23.292Z,4.84
2023-01-08T15:15:56.929Z,4.73
2023-01-08T15:18:24.836Z,5.02
2023-01-08T15:20:53.004Z,5.23
2023-01-08T15:23:28.136Z,5.18
2023-01-08T15:25:56.769Z,5.16
2023-01-08T15:28:26.699Z,5.33
2023-01-08T15:30:54.570Z,5.15
2023-01-08T15:33:23.565Z,5.21
2023-01-08T15:35:51.814Z,5.28
2023-01-08T15:38:20.888Z,5.20
2023-01-08T15:40:49.267Z,5.15
2023-01-08T15:43:18.078Z,5.21
2023-01-08T15:45:48.617Z,5.03
2023-01-08T15:48:16.527Z,5.14
2023-01-08T15:50:45.491Z,5.06
2023-01-08T15:53:18.984Z,5.27
2023-01-08T15:55:46.984Z,5.69
2023-01-08T15:58:15.932Z,5.46
2023-01-08T16:00:45.343Z,5.42
2023-01-08T16:03:15.194Z,5.60
2023-01-08T16:05:42.957Z,5.44
2023-01-08T16:08:11.740Z,5.27
2023-01-08T16:10:39.245Z,5.47
2023-01-08T16:13:06.736Z,5.89
2023-01-08T16:15:34.224Z,5.80
2023-01-08T16:18:01.694Z,5.87
2023-01-08T16:20:30.496Z,5.70
2023-01-08T16:22:58.064Z,5.95
2023-01-08T16:25:25.820Z,6.14
2023-01-08T16:27:53.418Z,6.17
2023-01-08T16:30:21.542Z,6.18
2023-01-08T16:32:52.544Z,5.86
2023-01-08T16:35:21.582Z,5.86
2023-01-08T16:37:50.444Z,5.57
2023-01-08T16:40:18.946Z,5.74
2023-01-08T16:42:46.436Z,5.79
2023-01-08T16:45:13.914Z,5.29
2023-01-08T16:47:41.386Z,5.30
2023-01-08T16:50:11.364Z,5.10
2023-01-08T16:52:39.522Z,4.97
2023-01-08T16:55:10.799Z,4.94
2023-01-08T16:57:38.424Z,4.61
2023-01-08T17:00:07.008Z,4.69
2023-01-08T17:02:34.480Z,4.91
2023-01-08T17:05:01.972Z,4.87
2023-01-08T17:07:29.449Z,5.12
2023-01-08T17:09:56.929Z,5.00
2023-01-08T17:12:26.264Z,5.08
2023-01-08T17:14:53.741Z,5.16
2023-01-08T17:17:21.195Z,4.82
2023-01-08T17:19:48.663Z,5.02
2023-01-08T17:22:16.184Z,4.99
2023-01-08T17:24:43.653Z,5.03
2023-01-08T17:27:11.724Z,5.21
2023-01-08T17:29:40.567Z,5.23
2023-01-08T17:32:08.059Z,5.26
2023-01-08T17:34:35.734Z,5.62
2023-01-08T17:37:03.228Z,5.58
2023-01-08T17:39:30.748Z,5.74
2023-01-08T17:42:15.945Z,5.81
2023-01-08T17:44:44.769Z,5.31
2023-01-08T17:47:12.281Z,4.89
2023-01-08T17:49:40.012Z,4.73
2023-01-08T17:52:09.633Z,4.83
2023-01-08T17:54:37.258Z,5.17
2023-01-08T17:57:04.882Z,5.14
2023-01-08T17:59:32.372Z,4.79
2023-01-08T18:02:01.419Z,4.78
2023-01-08T18:04:29.003Z,4.85
2023-01-08T18:06:56.539Z,4.62
2023-01-08T18:09:24.008Z,4.68
2023-01-08T18:11:51.721Z,4.72
2023-01-08T18:14:19.241Z,4.64
2023-01-08T18:16:47.811Z,4.71
2023-01-08T18:19:17.627Z,4.73
2023-01-08T18:21:45.222Z,4.42
2023-01-08T18:24:12.949Z,4.57
2023-01-08T18:26:40.822Z,4.56
2023-01-08T18:29:08.581Z,4.45
2023-01-08T18:31:36.201Z,4.40
2023-01-08T18:34:04.310Z,4.37
2023-01-08T18:36:33.628Z,4.43
2023-01-08T18:39:01.299Z,4.28
2023-01-08T18:41:46.501Z,4.17
2023-01-08T18:44:14.090Z,4.22
2023-01-08T18:46:41.702Z,4.25
2023-01-08T18:49:09.956Z,4.52
2023-01-08T18:51:38.809Z,4.83
2023-01-08T18:54:08.239Z,4.75
2023-01-08T18:56:37.531Z,4.96
2023-01-08T18:59:06.751Z,4.82
2023-01-08T19:01:35.569Z,4.92
2023-01-08T19:04:03.443Z,4.75
2023-01-08T19:06:31.046Z,4.80
2023-01-08T19:09:00.415Z,4.72
2023-01-08T19:11:28.850Z,5.07
2023-01-08T19:13:56.908Z,5.02
2023-01-08T19:16:24.976Z,4.98
2023-01-08T19:18:52.480Z,4.76
2023-01-08T19:21:20.023Z,4.54
2023-01-08T19:23:47.587Z,4.50
2023-01-08T19:26:16.910Z,4.51
2023-01-08T19:28:44.493Z,4.43
2023-01-08T19:31:14.398Z,4.38
2023-01-08T19:33:42.163Z,4.56
2023-01-08T19:36:12.732Z,4.79
2023-01-08T19:38:40.991Z,4.69
2023-01-08T19:41:30.783Z,4.32
2023-01-08T19:43:58.847Z,4.15
2023-01-08T19:46:26.460Z,4.22
2023-01-08T19:48:56.862Z,4.19
2023-01-08T19:51:25.111Z,4.20
2023-01-08T19:53:52.646Z,4.36
2023-01-08T19:56:20.342Z,4.47
2023-01-08T19:58:48.082Z,4.31
2023-01-08T20:01:19.276Z,4.51
2023-01-08T20:03:47.724Z,4.79
2023-01-08T20:06:19.469Z,4.81
2023-01-08T20:08:47.202Z,4.96
2023-01-08T20:11:16.778Z,5.15
2023-01-08T20:13:45.011Z,5.09
2023-01-08T20:16:14.426Z,5.18
2023-01-08T20:18:43.666Z,5.17
2023-01-08T20:21:15.296Z,5.14
2023-01-08T20:23:43.594Z,4.81
2023-01-08T20:26:14.388Z,4.80
2023-01-08T20:28:43.633Z,4.64
2023-01-08T20:31:13.104Z,4.55
2023-01-08T20:33:40.685Z,4.63
2023-01-08T20:36:10.862Z,4.49
2023-01-08T20:38:39.131Z,4.50
2023-01-08T20:41:07.223Z,4.42
2023-01-08T20:43:35.571Z,4.79
2023-01-08T20:46:03.943Z,4.78
2023-01-08T20:48:36.970Z,5.21
2023-01-08T20:51:09.456Z,5.66
2023-01-08T20:53:37.609Z,6.07
2023-01-08T20:56:06.737Z,6.25
2023-01-08T20:58:34.356Z,6.17
2023-01-08T21:01:06.483Z,6.29
2023-01-08T21:03:35.919Z,6.10
2023-01-08T21:06:06.086Z,6.15
2023-01-08T21:08:35.070Z,5.97
2023-01-08T21:11:05.889Z,6.08
2023-01-08T21:13:33.981Z,5.91
2023-01-08T21:16:03.584Z,6.13
2023-01-08T21:18:31.773Z,6.19
2023-01-08T21:21:00.957Z,6.36
2023-01-08T21:23:28.531Z,6.24
2023-01-08T21:25:58.738Z,6.15
2023-01-08T21:28:27.348Z,6.38
2023-01-08T21:30:55.281Z,6.24
2023-01-08T21:33:23.070Z,5.93
2023-01-08T21:35:50.605Z,6.18
2023-01-08T21:38:18.119Z,5.98
2023-01-08T21:40:45.635Z,6.40
2023-01-08T21:43:32.269Z,6.29
2023-01-08T21:46:02.556Z,6.27
2023-01-08T21:48:30.489Z,6.52
2023-01-08T21:50:58.015Z,6.37
2023-01-08T21:53:36.163Z,5.99
2023-01-08T21:56:05.707Z,6.18
2023-01-08T21:58:34.590Z,6.14
2023-01-08T22:01:02.582Z,6.30
2023-01-08T22:03:30.101Z,6.35
2023-01-08T22:05:59.252Z,6.48
2023-01-08T22:08:28.058Z,6.52
2023-01-08T22:10:55.808Z,6.50
2023-01-08T22:13:23.309Z,6.32
2023-01-08T22:15:52.223Z,6.33
2023-01-08T22:18:19.751Z,6.04
2023-01-08T22:20:47.250Z,6.27
2023-01-08T22:23:14.767Z,6.55
2023-01-08T22:25:42.289Z,6.38
2023-01-08T22:28:11.428Z,6.17
2023-01-08T22:30:40.700Z,6.10
2023-01-08T22:33:09.547Z,6.29
2023-01-08T22:35:38.338Z,6.55
2023-01-08T22:38:06.063Z,6.73
2023-01-08T22:40:33.554Z,6.66
2023-01-08T22:43:01.100Z,6.56
2023-01-08T22:45:28.621Z,6.78
2023-01-08T22:47:56.230Z,6.45
2023-01-08T22:50:25.132Z,5.70
2023-01-08T22:52:52.673Z,5.27
2023-01-08T22:55:20.362Z,5.51
2023-01-08T22:57:47.896Z,5.93
2023-01-08T23:00:16.331Z,5.90
2023-01-08T23:02:43.812Z,5.91
2023-01-08T23:05:11.348Z,6.17
2023-01-08T23:07:40.229Z,6.31
2023-01-08T23:10:08.247Z,6.56
2023-01-08T23:12:35.748Z,6.46
2023-01-08T23:15:04.384Z,6.58
2023-01-08T23:17:36.802Z,6.66
2023-01-08T23:20:07.303Z,6.70
2023-01-08T23:22:35.322Z,6.65
2023-01-08T23:25:05.086Z,6.89
2023-01-08T23:27:34.522Z,6.95
2023-01-08T23:30:03.060Z,7.01
2023-01-08T23:32:30.607Z,6.88
2023-01-08T23:34:58.120Z,6.35
2023-01-08T23:37:25.648Z,6.30
2023-01-08T23:39:53.173Z,6.29
2023-01-08T23:42:22.070Z,6.10
2023-01-08T23:44:49.922Z,6.31
2023-01-08T23:47:17.469Z,6.40
2023-01-08T23:49:44.944Z,6.71
2023-01-08T23:52:12.460Z,6.95
2023-01-08T23:54:39.998Z,6.91
2023-01-08T23:57:07.529Z,6.64
2023-01-08T23:59:36.364Z,6.83
